Time;durP1;ratioP1;P1;durP2;ratioP2;P2;SDS_P1;SDS_P2;PMS_P1;PMS_P2;Temp;Humidity;BMP_temperature;BMP_pressure;BME280_temperature;BME280_humidity;BME280_pressure;Samples;Min_cycle;Max_cycle;Signal;HPM_P1;HPM_P2
2021/06/25 00:01:36;;;;;;;1.85;1.23;;;25.80;44.10;;;;;;4970822;28;20562;-43
2021/06/25 00:04:02;;;;;;;1.27;1.05;;;25.80;44.20;;;;;;4970890;28;20220;-44
2021/06/25 00:06:29;;;;;;;1.65;0.90;;;25.80;44.30;;;;;;4970266;28;20204;-54
2021/06/25 00:08:55;;;;;;;1.30;1.20;;;25.80;44.40;;;;;;4971825;28;20231;-44
2021/06/25 00:11:22;;;;;;;1.35;1.20;;;25.80;44.30;;;;;;4972352;28;20211;-47
2021/06/25 00:13:48;;;;;;;1.90;1.23;;;25.80;44.30;;;;;;4975366;28;20307;-47
2021/06/25 00:16:15;;;;;;;2.60;1.40;;;25.80;44.30;;;;;;4973108;28;20283;-50
2021/06/25 00:18:41;;;;;;;1.27;1.17;;;25.90;44.40;;;;;;4973760;28;20239;-46
2021/06/25 00:21:08;;;;;;;1.48;1.10;;;25.90;44.40;;;;;;4974998;28;20205;-48
2021/06/25 00:23:34;;;;;;;1.27;1.00;;;25.90;44.40;;;;;;4974173;28;20225;-44
2021/06/25 00:26:01;;;;;;;2.95;1.30;;;25.80;44.40;;;;;;4974192;28;20796;-52
2021/06/25 00:28:27;;;;;;;1.67;1.20;;;25.90;44.40;;;;;;4973874;28;20295;-49
2021/06/25 00:30:54;;;;;;;1.27;1.13;;;25.80;44.30;;;;;;4975248;28;20291;-50
2021/06/25 00:33:20;;;;;;;0.98;0.98;;;25.80;44.40;;;;;;4973854;28;20351;-43
2021/06/25 00:35:46;;;;;;;1.17;1.08;;;25.80;44.40;;;;;;4974841;28;20318;-52
2021/06/25 00:38:13;;;;;;;1.60;1.30;;;25.80;44.30;;;;;;4972590;28;20201;-49
2021/06/25 00:40:39;;;;;;;1.77;1.02;;;25.80;44.30;;;;;;4974392;28;20211;-51
2021/06/25 00:43:06;;;;;;;2.22;1.13;;;25.80;44.30;;;;;;4973917;28;20723;-49
2021/06/25 00:45:32;;;;;;;2.10;1.42;;;25.80;44.30;;;;;;4974139;28;20236;-50
2021/06/25 00:47:59;;;;;;;1.15;1.10;;;25.80;44.40;;;;;;4973339;28;20292;-54
2021/06/25 00:50:25;;;;;;;0.90;0.90;;;25.90;44.40;;;;;;4974759;28;20205;-47
2021/06/25 00:52:52;;;;;;;1.85;1.23;;;25.90;44.40;;;;;;4972738;28;20236;-45
2021/06/25 00:55:18;;;;;;;1.30;1.20;;;25.80;44.30;;;;;;4974414;28;20297;-43
2021/06/25 00:57:45;;;;;;;1.75;1.17;;;25.90;44.40;;;;;;4972739;28;20200;-43
2021/06/25 01:00:11;;;;;;;1.58;1.00;;;25.80;44.40;;;;;;4973932;28;20296;-43
2021/06/25 01:02:37;;;;;;;3.10;1.70;;;25.90;44.40;;;;;;4973178;28;20231;-44
2021/06/25 01:05:04;;;;;;;1.10;1.00;;;25.90;44.40;;;;;;4973633;28;20211;-47
2021/06/25 01:07:30;;;;;;;1.60;1.13;;;25.90;44.40;;;;;;4973015;28;20208;-45
2021/06/25 01:09:57;;;;;;;1.20;1.10;;;25.80;44.30;;;;;;4974276;28;20199;-47
2021/06/25 01:12:23;;;;;;;1.52;1.00;;;25.80;44.30;;;;;;4973376;28;20303;-54
2021/06/25 01:14:50;;;;;;;1.65;1.13;;;25.80;44.30;;;;;;4973578;28;20564;-50
2021/06/25 01:17:16;;;;;;;1.35;1.10;;;25.80;44.30;;;;;;4971833;28;20231;-43
2021/06/25 01:19:43;;;;;;;2.03;1.38;;;25.90;44.40;;;;;;4971273;28;20213;-51
2021/06/25 01:22:09;;;;;;;1.60;1.20;;;25.80;44.40;;;;;;4971659;28;20231;-45
2021/06/25 01:24:35;;;;;;;1.20;1.10;;;25.90;44.50;;;;;;4955432;28;20295;-53
2021/06/25 01:27:02;;;;;;;1.10;1.00;;;25.80;44.50;;;;;;4971814;28;20720;-51
2021/06/25 01:29:28;;;;;;;1.15;1.05;;;25.80;44.50;;;;;;4974016;28;20722;-48
2021/06/25 01:31:55;;;;;;;1.63;1.13;;;25.90;44.60;;;;;;4971652;28;20588;-48
2021/06/25 01:34:21;;;;;;;3.20;1.15;;;25.90;44.60;;;;;;4974191;28;20284;-48
2021/06/25 01:36:48;;;;;;;2.05;0.90;;;25.90;44.70;;;;;;4972459;28;20235;-47
2021/06/25 01:39:14;;;;;;;1.17;1.08;;;25.90;44.70;;;;;;4972646;28;20208;-43
2021/06/25 01:41:41;;;;;;;1.30;1.20;;;25.90;44.70;;;;;;4971904;28;20214;-48
2021/06/25 01:44:08;;;;;;;1.10;1.00;;;25.80;45.20;;;;;;4973614;28;20263;-44
2021/06/25 01:46:34;;;;;;;1.08;0.98;;;25.80;44.60;;;;;;4972278;28;20236;-45
2021/06/25 01:49:01;;;;;;;1.13;0.90;;;25.80;44.60;;;;;;4973602;28;20561;-46
2021/06/25 01:51:27;;;;;;;1.27;1.10;;;25.90;44.60;;;;;;4972226;28;20239;-48
2021/06/25 01:53:53;;;;;;;1.20;1.00;;;25.90;44.70;;;;;;4972887;28;20216;-45
2021/06/25 01:56:20;;;;;;;1.38;1.10;;;25.80;44.60;;;;;;4972046;28;20244;-44
2021/06/25 01:58:46;;;;;;;1.63;1.08;;;25.90;44.70;;;;;;4972840;28;20196;-46
2021/06/25 02:01:14;;;;;;;2.15;1.17;;;25.80;44.60;;;;;;4971667;28;20223;-48
2021/06/25 02:03:40;;;;;;;1.45;1.27;;;25.80;44.60;;;;;;4972505;28;20302;-48
2021/06/25 02:06:07;;;;;;;1.50;1.00;;;25.90;44.70;;;;;;4972097;28;20192;-51
2021/06/25 02:08:33;;;;;;;1.35;1.20;;;25.90;44.70;;;;;;4972112;28;20705;-43
2021/06/25 02:11:00;;;;;;;2.25;1.20;;;25.80;44.60;;;;;;4971661;28;20657;-46
2021/06/25 02:13:26;;;;;;;1.25;1.08;;;25.80;44.60;;;;;;4972612;28;20247;-45
2021/06/25 02:15:53;;;;;;;1.92;1.13;;;25.80;44.60;;;;;;4972358;28;20262;-46
2021/06/25 02:18:19;;;;;;;1.45;1.10;;;25.90;44.70;;;;;;4972429;28;20208;-43
2021/06/25 02:20:46;;;;;;;1.20;1.10;;;25.90;44.70;;;;;;4971856;28;20200;-43
2021/06/25 02:23:12;;;;;;;1.02;1.02;;;25.80;44.70;;;;;;4971100;28;20251;-43
2021/06/25 02:25:38;;;;;;;1.75;0.90;;;25.90;44.70;;;;;;4972675;28;20255;-43
2021/06/25 02:28:05;;;;;;;1.20;1.10;;;25.80;44.60;;;;;;4971095;28;20288;-43
2021/06/25 02:30:31;;;;;;;4.18;1.85;;;25.90;44.70;;;;;;4971905;28;20208;-43
2021/06/25 02:32:58;;;;;;;0.93;0.80;;;25.80;44.70;;;;;;4971194;28;20225;-48
2021/06/25 02:35:24;;;;;;;1.10;0.80;;;25.80;44.70;;;;;;4970823;28;20210;-43
2021/06/25 02:37:54;;;;;;;1.63;1.08;;;25.90;44.70;;;;;;4972696;28;20310;-43
2021/06/25 02:40:20;;;;;;;1.95;1.00;;;25.80;44.60;;;;;;4971119;28;20280;-44
2021/06/25 02:42:47;;;;;;;1.02;1.00;;;25.80;44.70;;;;;;4971930;28;20311;-43
2021/06/25 02:45:13;;;;;;;1.10;1.00;;;25.80;44.70;;;;;;4971063;28;20291;-43
2021/06/25 02:47:40;;;;;;;1.23;1.13;;;25.80;44.70;;;;;;4972404;28;20299;-43
2021/06/25 02:50:06;;;;;;;1.25;1.00;;;25.80;44.70;;;;;;4971262;28;20207;-43
2021/06/25 02:52:33;;;;;;;1.10;1.00;;;25.80;44.70;;;;;;4971265;28;20235;-45
2021/06/25 02:54:59;;;;;;;2.22;1.08;;;25.90;45.50;;;;;;4971377;28;20207;-44
2021/06/25 02:57:26;;;;;;;1.20;1.10;;;25.80;44.70;;;;;;4971228;28;20235;-44
2021/06/25 02:59:52;;;;;;;1.00;0.90;;;25.80;44.70;;;;;;4970084;28;20223;-43
2021/06/25 03:02:18;;;;;;;1.23;1.13;;;25.80;44.80;;;;;;4970742;28;20591;-45
2021/06/25 03:04:45;;;;;;;1.10;1.00;;;25.80;44.80;;;;;;4972525;28;20574;-43
2021/06/25 03:07:11;;;;;;;1.02;0.90;;;25.80;44.80;;;;;;4970972;28;20200;-43
2021/06/25 03:09:38;;;;;;;1.30;0.98;;;25.90;44.90;;;;;;4972762;28;20208;-43
2021/06/25 03:12:04;;;;;;;1.20;1.10;;;25.80;44.80;;;;;;4969818;28;20224;-43
2021/06/25 03:14:31;;;;;;;1.08;0.98;;;25.80;44.80;;;;;;4971128;28;20283;-44
2021/06/25 03:16:57;;;;;;;1.70;1.10;;;25.80;44.80;;;;;;4970567;28;20399;-43
2021/06/25 03:19:24;;;;;;;1.00;0.95;;;25.90;44.80;;;;;;4972419;28;20201;-45
2021/06/25 03:21:50;;;;;;;1.17;1.13;;;25.90;44.80;;;;;;4969449;28;20216;-46
2021/06/25 03:24:16;;;;;;;0.80;0.80;;;25.90;44.80;;;;;;4969311;28;20207;-46
2021/06/25 03:26:43;;;;;;;1.40;1.05;;;25.80;44.80;;;;;;4968750;28;20212;-43
2021/06/25 03:29:09;;;;;;;0.80;0.80;;;25.90;44.80;;;;;;4972368;28;20204;-43
2021/06/25 03:31:36;;;;;;;2.13;1.85;;;25.80;44.80;;;;;;4971085;28;20331;-43
2021/06/25 03:34:02;;;;;;;1.30;0.90;;;25.90;44.90;;;;;;4971185;28;20295;-53
2021/06/25 03:36:29;;;;;;;1.00;0.90;;;25.90;44.90;;;;;;4970458;28;20264;-48
2021/06/25 03:38:55;;;;;;;1.15;1.00;;;25.80;44.80;;;;;;4972106;28;20201;-51
2021/06/25 03:41:22;;;;;;;2.40;0.95;;;25.90;44.90;;;;;;4971031;28;20570;-52
2021/06/25 03:43:48;;;;;;;1.52;0.90;;;25.90;44.90;;;;;;4970316;28;20567;-52
2021/06/25 03:46:14;;;;;;;1.10;1.00;;;25.90;44.90;;;;;;4974108;28;20205;-48
2021/06/25 03:48:41;;;;;;;0.80;0.80;;;25.80;44.80;;;;;;4975573;28;20200;-49
2021/06/25 03:51:07;;;;;;;0.85;0.85;;;25.80;44.80;;;;;;4975042;28;20296;-53
2021/06/25 03:53:34;;;;;;;1.10;1.00;;;25.90;44.90;;;;;;4974078;28;20204;-49
2021/06/25 03:56:12;;;;;;;2.33;1.08;;;25.80;44.80;;;;;;4974336;28;20315;-45
2021/06/25 03:58:39;;;;;;;1.95;1.15;;;25.80;44.80;;;;;;4975099;28;20197;-45
2021/06/25 04:01:05;;;;;;;1.05;0.98;;;25.90;45.00;;;;;;4973901;28;20227;-46
2021/06/25 04:03:32;;;;;;;1.20;1.10;;;25.90;44.90;;;;;;4974133;28;20695;-44
2021/06/25 04:05:58;;;;;;;1.08;0.98;;;25.80;44.80;;;;;;4974886;28;20287;-44
2021/06/25 04:08:27;;;;;;;1.70;1.17;;;25.80;44.90;;;;;;4975240;28;20197;-47
2021/06/25 04:10:53;;;;;;;1.45;1.00;;;25.80;44.90;;;;;;4974554;28;20248;-50
2021/06/25 04:13:19;;;;;;;2.35;0.80;;;25.80;44.80;;;;;;4974042;28;20223;-45
2021/06/25 04:15:46;;;;;;;1.10;1.00;;;25.90;44.90;;;;;;4973260;28;20204;-45
2021/06/25 04:18:14;;;;;;;1.55;0.90;;;25.80;44.80;;;;;;4973124;28;20712;-44
2021/06/25 04:20:40;;;;;;;1.45;1.10;;;25.80;44.70;;;;;;4975065;28;20303;-43
2021/06/25 04:23:06;;;;;;;1.08;1.00;;;25.80;44.70;;;;;;4989404;23;20224;-48
2021/06/25 04:25:33;;;;;;;0.93;0.90;;;25.80;44.70;;;;;;4975083;28;20688;-43
2021/06/25 04:27:59;;;;;;;1.85;0.98;;;25.80;44.60;;;;;;4966817;28;20230;-42
2021/06/25 04:30:26;;;;;;;1.10;1.00;;;25.80;44.60;;;;;;4985711;28;20230;-39
2021/06/25 04:32:53;;;;;;;1.35;0.88;;;25.80;44.60;;;;;;4974037;28;20311;-41
2021/06/25 04:35:19;;;;;;;1.17;1.08;;;25.80;44.50;;;;;;4973358;28;20231;-42
2021/06/25 04:37:46;;;;;;;1.92;1.05;;;25.80;44.50;;;;;;4973909;28;20258;-41
2021/06/25 04:40:12;;;;;;;1.10;1.00;;;25.80;44.40;;;;;;4972929;28;20197;-48
2021/06/25 04:42:38;;;;;;;1.85;1.10;;;25.80;44.40;;;;;;4973184;28;20220;-44
2021/06/25 04:45:05;;;;;;;1.20;0.95;;;25.80;44.40;;;;;;4973010;28;20312;-49
2021/06/25 04:47:31;;;;;;;2.08;1.30;;;25.80;44.40;;;;;;4972621;28;20291;-52
2021/06/25 04:49:58;;;;;;;1.00;1.00;;;25.80;44.30;;;;;;4974372;28;20204;-49
2021/06/25 04:52:24;;;;;;;0.80;0.80;;;25.80;44.30;;;;;;4973654;28;20216;-40
2021/06/25 04:54:51;;;;;;;0.85;0.85;;;25.80;44.30;;;;;;4972061;28;20205;-43
2021/06/25 04:57:17;;;;;;;2.15;1.42;;;25.80;44.30;;;;;;4972113;28;20231;-49
2021/06/25 04:59:44;;;;;;;1.55;1.00;;;25.90;44.40;;;;;;4973413;28;20203;-50
2021/06/25 05:02:10;;;;;;;0.98;0.98;;;25.80;44.30;;;;;;4973578;28;20311;-50
2021/06/25 05:04:36;;;;;;;1.52;1.00;;;25.80;44.30;;;;;;4971864;28;20227;-49
2021/06/25 05:07:03;;;;;;;0.93;0.90;;;25.80;44.30;;;;;;4972578;28;20215;-41
2021/06/25 05:09:29;;;;;;;1.33;0.90;;;25.80;44.30;;;;;;4972271;28;20211;-41
2021/06/25 05:11:56;;;;;;;1.02;1.02;;;25.90;44.40;;;;;;4973633;28;20231;-48
2021/06/25 05:14:22;;;;;;;2.08;0.80;;;25.80;44.30;;;;;;4972078;28;20207;-50
2021/06/25 05:16:49;;;;;;;1.15;0.85;;;25.80;44.30;;;;;;4970399;28;20236;-51
2021/06/25 05:19:15;;;;;;;1.05;0.90;;;25.80;44.30;;;;;;4973535;28;20196;-45
2021/06/25 05:21:42;;;;;;;1.17;0.93;;;25.80;44.30;;;;;;4972419;28;20319;-48
2021/06/25 05:24:08;;;;;;;1.10;0.90;;;25.80;44.30;;;;;;4973923;28;20263;-49
2021/06/25 05:26:34;;;;;;;1.02;0.90;;;25.90;44.40;;;;;;4966347;28;20215;-52
2021/06/25 05:29:01;;;;;;;1.25;0.90;;;25.90;44.40;;;;;;4973407;28;20295;-45
2021/06/25 05:31:27;;;;;;;0.95;0.90;;;25.80;44.30;;;;;;4972161;28;20224;-44
2021/06/25 05:33:54;;;;;;;1.15;0.90;;;25.80;44.30;;;;;;4971972;28;20200;-46
2021/06/25 05:36:20;;;;;;;0.98;0.88;;;25.80;44.30;;;;;;4971644;28;20215;-43
2021/06/25 05:38:47;;;;;;;0.70;0.70;;;25.80;44.30;;;;;;4973391;28;20213;-44
2021/06/25 05:41:14;;;;;;;1.38;0.95;;;25.90;44.40;;;;;;4971555;28;20235;-45
2021/06/25 05:43:41;;;;;;;1.55;1.00;;;25.80;44.30;;;;;;4973265;28;20196;-45
2021/06/25 05:46:08;;;;;;;0.82;0.82;;;25.80;44.40;;;;;;4971562;28;20227;-39
2021/06/25 05:48:34;;;;;;;1.30;0.80;;;25.80;44.30;;;;;;4972748;28;20203;-42
2021/06/25 05:51:01;;;;;;;1.00;0.80;;;25.80;44.30;;;;;;4971776;28;21618;-52
2021/06/25 05:53:30;;;;;;;1.05;0.90;;;25.90;44.40;;;;;;4972032;28;20205;-48
2021/06/25 05:55:56;;;;;;;1.05;0.90;;;25.90;44.40;;;;;;4971285;28;20232;-43
2021/06/25 05:58:23;;;;;;;1.20;1.00;;;25.90;44.40;;;;;;4971425;28;20323;-51
2021/06/25 06:00:49;;;;;;;0.90;0.90;;;25.90;44.40;;;;;;4972495;28;20886;-51
2021/06/25 06:03:16;;;;;;;1.25;1.00;;;25.90;44.40;;;;;;4967830;28;20236;-40
2021/06/25 06:05:43;;;;;;;1.17;0.80;;;25.80;44.40;;;;;;4971474;28;20299;-38
2021/06/25 06:08:09;;;;;;;1.58;0.95;;;25.90;44.40;;;;;;4964200;28;20269;-43
2021/06/25 06:10:35;;;;;;;1.17;1.05;;;25.80;44.30;;;;;;4962307;28;20699;-41
2021/06/25 06:13:02;;;;;;;2.28;0.98;;;25.90;44.40;;;;;;4970039;28;20680;-42
2021/06/25 06:15:28;;;;;;;1.83;1.13;;;25.90;44.40;;;;;;4970183;28;20565;-41
2021/06/25 06:17:57;;;;;;;3.28;1.30;;;25.90;44.40;;;;;;4971810;28;20273;-42
2021/06/25 06:20:25;;;;;;;3.55;1.20;;;25.90;44.20;;;;;;4965986;28;20209;-47
2021/06/25 06:33:55;;;;;;;1.42;1.30;;;25.90;43.80;;;;;;4956655;28;20247;-39
2021/06/25 06:36:24;;;;;;;2.08;1.20;;;25.80;42.90;;;;;;4964434;28;20275;-45
2021/06/25 06:38:50;;;;;;;3.03;1.70;;;25.80;42.90;;;;;;4971019;28;20204;-46
2021/06/25 06:41:17;;;;;;;3.05;1.50;;;25.80;43.00;;;;;;4969802;28;20242;-43
2021/06/25 06:43:43;;;;;;;2.03;1.70;;;25.80;42.90;;;;;;4971012;28;20211;-49
2021/06/25 06:46:10;;;;;;;7.93;2.47;;;25.80;42.50;;;;;;4969524;28;20216;-40
2021/06/25 06:48:37;;;;;;;2.30;2.10;;;25.20;40.30;;;;;;4969757;28;20311;-40
2021/06/25 06:51:03;;;;;;;2.72;1.70;;;22.20;43.50;;;;;;4970625;28;20681;-37
2021/06/25 06:53:30;;;;;;;2.22;2.03;;;21.30;45.90;;;;;;4969650;28;20546;-43
2021/06/25 06:55:56;;;;;;;2.03;1.92;;;22.30;45.40;;;;;;4970687;28;20525;-43
2021/06/25 06:58:23;;;;;;;2.63;2.42;;;21.70;44.20;;;;;;4971073;28;20330;-40
2021/06/25 07:00:49;;;;;;;2.50;2.30;;;21.10;45.90;;;;;;4970045;28;20347;-50
2021/06/25 07:03:16;;;;;;;3.47;2.35;;;21.30;45.60;;;;;;4959672;28;20203;-51
2021/06/25 07:05:42;;;;;;;2.28;2.10;;;20.90;45.20;;;;;;4970660;28;20221;-53
2021/06/25 07:08:08;;;;;;;2.40;2.20;;;20.60;46.70;;;;;;4970760;28;20304;-40
2021/06/25 07:10:35;;;;;;;2.92;2.10;;;20.40;47.50;;;;;;4958241;28;20229;-40
2021/06/25 07:13:01;;;;;;;2.13;2.03;;;20.50;46.90;;;;;;4967447;28;20219;-37
2021/06/25 07:15:28;;;;;;;7.22;2.35;;;21.20;47.60;;;;;;4968216;28;20215;-36
2021/06/25 07:17:54;;;;;;;2.95;1.95;;;21.90;46.60;;;;;;4969047;28;20240;-44
2021/06/25 07:20:21;;;;;;;3.78;1.83;;;22.50;45.80;;;;;;4971035;28;20196;-41
2021/06/25 07:22:47;;;;;;;4.00;1.90;;;23.00;45.60;;;;;;4971904;28;20200;-39
2021/06/25 07:25:13;;;;;;;5.03;1.70;;;23.40;45.70;;;;;;4971989;28;20228;-39
2021/06/25 07:27:42;;;;;;;8.35;1.80;;;23.60;45.20;;;;;;4972839;28;20208;-44
2021/06/25 07:30:08;;;;;;;4.40;1.55;;;23.70;44.70;;;;;;4973368;28;20205;-42
2021/06/25 07:32:35;;;;;;;2.28;1.92;;;23.90;44.20;;;;;;4974151;28;20680;-41
2021/06/25 07:35:01;;;;;;;1.80;1.70;;;24.00;43.90;;;;;;4974448;28;20520;-38
2021/06/25 07:37:27;;;;;;;2.35;1.92;;;24.10;43.80;;;;;;4979897;28;20683;-37
2021/06/25 07:39:54;;;;;;;2.17;1.80;;;24.20;43.10;;;;;;4972911;28;20374;-41
2021/06/25 07:42:21;;;;;;;1.92;1.73;;;24.30;43.20;;;;;;4975895;28;20226;-39
2021/06/25 07:44:47;;;;;;;2.10;1.50;;;24.40;43.30;;;;;;4979006;28;20211;-44
2021/06/25 07:47:14;;;;;;;1.80;1.70;;;24.40;43.00;;;;;;4972706;28;20311;-45
2021/06/25 07:49:40;;;;;;;1.77;1.67;;;24.50;42.60;;;;;;4974332;28;20209;-39
2021/06/25 07:52:07;;;;;;;1.90;1.80;;;24.50;42.40;;;;;;4974096;28;20319;-45
2021/06/25 07:54:33;;;;;;;1.92;1.83;;;24.60;42.10;;;;;;4975274;28;20206;-38
2021/06/25 07:57:00;;;;;;;2.20;1.80;;;24.60;42.40;;;;;;4972698;28;20231;-41
2021/06/25 07:59:26;;;;;;;1.70;1.60;;;24.70;42.80;;;;;;4971127;28;20640;-40
2021/06/25 08:01:53;;;;;;;1.70;1.60;;;24.70;42.20;;;;;;4972137;28;20598;-42
2021/06/25 08:04:19;;;;;;;2.78;1.80;;;24.70;41.60;;;;;;4974112;28;20234;-42
2021/06/25 08:06:46;;;;;;;1.63;1.52;;;24.70;41.80;;;;;;4972153;28;20541;-41
2021/06/25 08:09:12;;;;;;;3.38;1.85;;;24.80;41.90;;;;;;4972726;28;20292;-39
2021/06/25 08:11:39;;;;;;;3.88;1.90;;;24.80;42.10;;;;;;4973356;28;20231;-40
2021/06/25 08:14:06;;;;;;;5.30;1.60;;;24.90;42.30;;;;;;4971654;28;20208;-41
2021/06/25 08:16:33;;;;;;;3.58;2.03;;;24.90;42.30;;;;;;4972267;28;20370;-38
2021/06/25 08:19:00;;;;;;;4.95;1.63;;;24.90;42.50;;;;;;4972585;28;20319;-41
2021/06/25 08:21:27;;;;;;;4.03;1.52;;;24.90;41.90;;;;;;4973499;28;20228;-38
2021/06/25 08:23:53;;;;;;;2.85;1.75;;;24.90;41.50;;;;;;4972017;28;20263;-41
2021/06/25 08:26:20;;;;;;;5.97;1.60;;;24.90;41.40;;;;;;4972198;28;20211;-42
2021/06/25 08:28:46;;;;;;;2.50;1.45;;;25.00;42.00;;;;;;4975542;28;20204;-46
2021/06/25 08:31:12;;;;;;;7.85;1.70;;;25.00;41.30;;;;;;4982689;28;20301;-40
2021/06/25 08:33:39;;;;;;;3.63;1.52;;;25.00;40.80;;;;;;4972562;28;20196;-38
2021/06/25 08:36:05;;;;;;;2.95;1.50;;;25.00;41.50;;;;;;4971330;28;20200;-38
2021/06/25 08:38:32;;;;;;;1.83;1.35;;;25.00;41.60;;;;;;4972510;28;20236;-40
2021/06/25 08:40:58;;;;;;;1.85;1.42;;;25.10;41.20;;;;;;4972135;28;20307;-37
2021/06/25 08:43:25;;;;;;;2.47;1.52;;;25.10;40.80;;;;;;4968928;28;20213;-38
2021/06/25 08:45:51;;;;;;;2.25;1.40;;;25.10;40.70;;;;;;4964702;28;20205;-38
2021/06/25 08:48:18;;;;;;;2.58;1.77;;;25.10;41.00;;;;;;4969620;28;20204;-44
2021/06/25 08:50:44;;;;;;;4.57;1.45;;;25.10;41.10;;;;;;4970662;28;20224;-41
2021/06/25 08:53:10;;;;;;;2.00;1.42;;;25.10;41.00;;;;;;4965743;28;20207;-41
2021/06/25 08:55:43;;;;;;;2.92;1.60;;;25.10;40.50;;;;;;4966537;28;20205;-45
2021/06/25 08:58:10;;;;;;;1.50;1.40;;;25.10;40.30;;;;;;4963922;28;20228;-49
2021/06/25 09:00:36;;;;;;;1.55;1.38;;;25.10;40.20;;;;;;4970727;28;20233;-45
2021/06/25 09:03:03;;;;;;;2.70;1.40;;;25.10;40.50;;;;;;4972372;28;20232;-41
2021/06/25 09:05:29;;;;;;;2.58;1.42;;;25.10;40.80;;;;;;4972847;28;20201;-42
2021/06/25 09:07:56;;;;;;;2.40;1.60;;;25.20;41.20;;;;;;4970609;28;20920;-46
2021/06/25 09:10:23;;;;;;;3.95;1.67;;;25.20;41.50;;;;;;4965914;28;20311;-47
2021/06/25 09:12:49;;;;;;;3.17;1.63;;;25.20;41.70;;;;;;4956249;28;20209;-45
2021/06/25 09:15:17;;;;;;;4.45;1.60;;;25.20;42.30;;;;;;4960788;28;20288;-40
2021/06/25 09:17:44;;;;;;;5.57;2.03;;;25.20;42.70;;;;;;4972744;28;20266;-38
2021/06/25 09:20:10;;;;;;;5.80;2.20;;;25.20;42.90;;;;;;4973213;28;20252;-42
2021/06/25 09:22:37;;;;;;;5.68;1.98;;;25.20;43.20;;;;;;4973802;28;20209;-43
2021/06/25 09:25:03;;;;;;;6.57;2.10;;;25.30;43.40;;;;;;4973216;28;20208;-41
2021/06/25 09:27:30;;;;;;;8.48;2.22;;;25.20;43.50;;;;;;4973180;28;20213;-45
2021/06/25 09:29:56;;;;;;;5.82;2.20;;;25.30;43.90;;;;;;4961030;28;20765;-41
2021/06/25 09:32:23;;;;;;;6.95;2.70;;;25.30;44.00;;;;;;4954088;29;20624;-48
2021/06/25 09:34:50;;;;;;;4.47;2.00;;;25.30;44.00;;;;;;4953814;29;20573;-42
2021/06/25 09:37:16;;;;;;;7.70;2.72;;;25.30;44.00;;;;;;4955613;28;20209;-41
2021/06/25 09:39:43;;;;;;;8.68;2.33;;;25.30;44.00;;;;;;4969775;28;20220;-44
2021/06/25 09:42:09;;;;;;;2.90;1.60;;;25.20;41.90;;;;;;4971948;28;20289;-43
2021/06/25 09:44:36;;;;;;;1.55;1.25;;;24.90;39.30;;;;;;4966811;28;20211;-45
2021/06/25 09:47:02;;;;;;;1.73;1.17;;;24.30;39.10;;;;;;4969627;28;20209;-45
2021/06/25 09:49:29;;;;;;;1.17;1.08;;;24.10;38.70;;;;;;4966785;28;20228;-40
2021/06/25 09:51:55;;;;;;;1.60;1.33;;;23.70;39.30;;;;;;4970536;28;20208;-45
2021/06/25 09:54:22;;;;;;;1.88;1.30;;;23.90;40.10;;;;;;4968844;28;20207;-42
2021/06/25 09:56:51;;;;;;;1.13;1.10;;;24.20;39.90;;;;;;4970879;28;20294;-41
2021/06/25 09:59:24;;;;;;;1.20;1.10;;;23.90;38.40;;;;;;4968721;28;20357;-49
2021/06/25 10:01:49;;;;;;;0.98;0.90;;;24.00;39.30;;;;;;4971730;28;20204;-56
2021/06/25 10:04:15;;;;;;;1.00;1.00;;;24.30;39.80;;;;;;4972491;28;20279;-40
2021/06/25 10:06:42;;;;;;;1.27;1.17;;;24.50;40.50;;;;;;4968388;28;20622;-53
2021/06/25 10:09:08;;;;;;;1.20;1.10;;;24.60;40.60;;;;;;4971509;28;20316;-43
2021/06/25 10:11:35;;;;;;;1.17;1.08;;;24.70;41.30;;;;;;4971378;28;20570;-39
2021/06/25 10:14:01;;;;;;;1.20;1.10;;;24.80;41.50;;;;;;4968827;28;20597;-40
2021/06/25 10:16:28;;;;;;;2.72;1.20;;;24.90;41.60;;;;;;4970451;28;20235;-43
2021/06/25 10:18:54;;;;;;;1.35;1.25;;;24.90;42.00;;;;;;4970687;28;20264;-50
2021/06/25 10:21:21;;;;;;;4.28;1.08;;;25.00;41.50;;;;;;4970060;28;20280;-43
2021/06/25 10:23:47;;;;;;;0.90;0.90;;;25.00;41.70;;;;;;4971046;28;20208;-41
2021/06/25 10:26:14;;;;;;;4.70;1.48;;;25.10;41.30;;;;;;4969234;28;20204;-42
2021/06/25 10:28:40;;;;;;;2.70;1.77;;;25.10;41.50;;;;;;4970383;28;20224;-42
2021/06/25 10:31:07;;;;;;;5.05;1.92;;;25.20;41.80;;;;;;4970146;28;20664;-42
2021/06/25 10:33:34;;;;;;;2.33;1.45;;;25.20;41.60;;;;;;4967849;28;20212;-46
2021/06/25 10:36:00;;;;;;;4.07;1.70;;;25.20;42.00;;;;;;4970413;28;20296;-41
2021/06/25 10:38:27;;;;;;;3.38;1.48;;;25.20;41.70;;;;;;4970353;28;20594;-46
2021/06/25 10:40:53;;;;;;;1.45;1.35;;;25.20;41.90;;;;;;4969132;28;20239;-45
2021/06/25 10:43:20;;;;;;;2.97;1.40;;;25.20;42.30;;;;;;4959556;28;20688;-44
2021/06/25 10:45:46;;;;;;;2.35;1.50;;;25.20;42.60;;;;;;4968985;28;20602;-46
2021/06/25 10:48:13;;;;;;;2.03;1.50;;;25.20;42.50;;;;;;4962896;28;20236;-47
2021/06/25 10:50:39;;;;;;;1.05;1.00;;;25.20;42.30;;;;;;4964247;28;20264;-45
2021/06/25 10:53:05;;;;;;;1.40;1.25;;;25.20;41.70;;;;;;4968491;28;20570;-44
2021/06/25 10:55:31;;;;;;;1.30;1.15;;;25.20;41.20;;;;;;4969334;28;20636;-44
2021/06/25 10:57:58;;;;;;;1.30;0.93;;;25.20;40.90;;;;;;4968430;28;20602;-49
2021/06/25 11:00:24;;;;;;;3.53;1.30;;;25.20;41.30;;;;;;4967112;28;20315;-45
2021/06/25 11:02:50;;;;;;;1.00;0.90;;;25.20;41.20;;;;;;4969650;28;20204;-43
2021/06/25 11:05:17;;;;;;;1.35;1.05;;;25.20;41.00;;;;;;4970006;28;20205;-43
2021/06/25 11:07:44;;;;;;;1.13;1.10;;;25.30;41.70;;;;;;4967100;28;20209;-49
2021/06/25 11:10:10;;;;;;;1.05;1.00;;;25.30;41.70;;;;;;4968192;28;21034;-49
2021/06/25 11:12:37;;;;;;;1.52;1.20;;;25.20;41.30;;;;;;4964820;28;20215;-48
2021/06/25 11:15:03;;;;;;;3.80;1.30;;;25.30;40.60;;;;;;4970603;28;21143;-48
2021/06/25 11:17:30;;;;;;;1.27;1.17;;;25.20;39.80;;;;;;4967640;28;20208;-46
2021/06/25 11:19:56;;;;;;;1.00;1.00;;;25.20;40.40;;;;;;4969874;28;20319;-50
2021/06/25 11:22:23;;;;;;;1.35;1.25;;;25.20;40.00;;;;;;4969433;28;20203;-44
2021/06/25 11:24:49;;;;;;;1.00;1.00;;;25.20;39.90;;;;;;4969621;28;20213;-49
2021/06/25 11:27:16;;;;;;;1.10;1.00;;;25.20;39.60;;;;;;4956836;28;20799;-48
2021/06/25 11:29:42;;;;;;;2.83;1.08;;;25.20;39.20;;;;;;4966924;28;20603;-48
2021/06/25 11:32:09;;;;;;;1.42;1.00;;;25.20;39.10;;;;;;4969561;28;20213;-46
2021/06/25 11:34:35;;;;;;;1.20;1.10;;;25.20;39.10;;;;;;4966824;28;20285;-50
2021/06/25 11:37:02;;;;;;;1.10;1.00;;;25.20;39.10;;;;;;4966683;28;20205;-50
2021/06/25 11:39:28;;;;;;;2.05;1.25;;;25.20;39.10;;;;;;4968459;28;20237;-50
2021/06/25 11:41:55;;;;;;;1.10;1.05;;;25.30;39.20;;;;;;4963742;28;20205;-46
2021/06/25 11:44:22;;;;;;;1.75;1.20;;;25.20;39.10;;;;;;4969699;28;20227;-48
2021/06/25 11:46:49;;;;;;;2.33;1.25;;;25.30;39.20;;;;;;4966849;28;20310;-50
2021/06/25 11:49:15;;;;;;;1.95;1.27;;;25.30;39.20;;;;;;4968099;28;20704;-46
2021/06/25 11:51:42;;;;;;;1.42;1.10;;;25.30;39.20;;;;;;4959636;28;20240;-46
2021/06/25 11:54:08;;;;;;;1.13;1.10;;;25.30;39.40;;;;;;4967601;28;20291;-43
2021/06/25 11:56:35;;;;;;;1.50;1.20;;;25.30;39.70;;;;;;4956761;28;20289;-47
2021/06/25 11:59:01;;;;;;;0.90;0.90;;;25.30;39.80;;;;;;4959413;28;20240;-49
2021/06/25 12:01:28;;;;;;;1.55;1.10;;;25.30;39.70;;;;;;4968181;28;20204;-43
2021/06/25 12:03:55;;;;;;;1.40;1.20;;;25.30;39.60;;;;;;4966732;28;20213;-46
2021/06/25 12:06:22;;;;;;;1.13;1.02;;;25.30;39.40;;;;;;4966120;28;20209;-46
2021/06/25 12:08:48;;;;;;;1.33;1.20;;;25.30;39.30;;;;;;4967877;28;20220;-49
2021/06/25 12:11:15;;;;;;;0.95;0.90;;;25.40;39.20;;;;;;4972135;28;20270;-43
2021/06/25 12:13:41;;;;;;;0.80;0.80;;;25.30;39.20;;;;;;4972194;28;20211;-45
2021/06/25 12:16:08;;;;;;;0.90;0.90;;;25.30;38.80;;;;;;4969962;28;20229;-48
2021/06/25 12:18:34;;;;;;;0.85;0.85;;;25.30;38.60;;;;;;4970039;28;20224;-48
2021/06/25 12:21:01;;;;;;;0.80;0.80;;;25.30;38.40;;;;;;4970826;28;20607;-47
2021/06/25 12:23:27;;;;;;;0.75;0.75;;;25.30;38.20;;;;;;4970474;28;20219;-47
2021/06/25 12:25:54;;;;;;;0.93;0.93;;;25.30;38.10;;;;;;4973084;28;20223;-48
2021/06/25 12:28:20;;;;;;;1.05;1.05;;;25.30;38.00;;;;;;4972279;28;20235;-50
2021/06/25 12:30:47;;;;;;;0.90;0.90;;;25.30;37.80;;;;;;4972063;28;20217;-46
2021/06/25 12:33:13;;;;;;;1.35;0.80;;;25.40;37.70;;;;;;4972218;28;20290;-48
2021/06/25 12:35:40;;;;;;;0.70;0.70;;;25.30;37.50;;;;;;4970928;28;20204;-49
2021/06/25 12:38:06;;;;;;;0.82;0.75;;;25.40;37.60;;;;;;4968281;28;20256;-50
2021/06/25 12:40:33;;;;;;;0.70;0.70;;;25.30;37.50;;;;;;4972329;28;20196;-46
2021/06/25 12:42:59;;;;;;;0.82;0.82;;;25.40;37.70;;;;;;4970686;28;20304;-48
2021/06/25 12:45:26;;;;;;;0.85;0.80;;;25.40;37.80;;;;;;4973399;28;20211;-43
2021/06/25 12:47:52;;;;;;;1.25;0.80;;;25.30;37.90;;;;;;4969570;28;20699;-43
2021/06/25 12:50:19;;;;;;;0.85;0.85;;;25.40;38.20;;;;;;4972201;28;20687;-47
2021/06/25 12:52:46;;;;;;;1.00;1.00;;;25.40;38.40;;;;;;4967800;28;20679;-49
2021/06/25 12:55:12;;;;;;;1.63;0.93;;;25.40;38.70;;;;;;4966525;28;20208;-44